Berta — V2BQ6 — position and weather

sailwx.info

Track history (hours):
 
Tides and Currents Weather Stations Pressure Air Temp Water Temp Dewpoint Dewpoint Depression Visibility Wind Speed Wind Dir Waves Ship Positions

Berta

Last reported at 2016-Dec-11 07:33 UTC. Time now 2016-Dec-11 08:08 UTC.
Position N 54°01' E 007°44'.

Length 118 m; draft 6.9 m.

Type: Cargo ship. MMSI: 304586000.

Date/timePositionNaut miles runAvg speedWind from/ knotsBaromVisibWave heightAir tempDewpointWater temp
2016-Dec-11 07:33N 54°01' E 007°44'10 9.7
2016-Dec-11 06:33N 54°00' E 008°00'9 9.3
2016-Dec-11 05:33N 54°00' E 008°16'1110.6
2016-Dec-11 04:33N 53°58' E 008°34'1313.3
2016-Dec-11 03:33N 53°51' E 008°52'1413.9
2016-Dec-11 02:34N 53°52' E 009°16'1515.1
2016-Dec-11 01:34N 53°40' E 009°31'1312.7
2016-Dec-11 00:34N 53°33' E 009°48'4 3.9
2016-Dec-10 23:32N 53°32' E 009°55'0 0.0
2016-Dec-10 22:32N 53°32' E 009°55'1 1.0
2016-Dec-10 21:33N 53°32' E 009°56'2 1.9
2016-Dec-10 20:33N 53°30' E 009°56'0 0.0
2016-Dec-10 19:33N 53°30' E 009°56'0 0.0
2016-Dec-10 18:33N 53°30' E 009°56'0 0.0
2016-Dec-10 17:33N 53°30' E 009°56'2 2.2
2016-Dec-10 16:33N 53°32' E 009°55'0 0.0
2016-Dec-10 15:33N 53°32' E 009°55'0 0.0
2016-Dec-10 14:33N 53°32' E 009°55'0 0.0
2016-Dec-10 13:33N 53°32' E 009°55'0 0.0
2016-Dec-10 12:33N 53°32' E 009°55'0 0.0
2016-Dec-10 11:33N 53°32' E 009°55'0 0.0
2016-Dec-10 10:33N 53°32' E 009°55'0 0.0
2016-Dec-10 09:33N 53°32' E 009°55'0 0.0
2016-Dec-10 08:33N 53°32' E 009°55'0 0.0
2016-Dec-10 07:33N 53°32' E 009°55'1 1.3
2016-Dec-10 06:33N 53°33' E 009°53'1111.1
2016-Dec-10 05:33N 53°36' E 009°35'1211.7
2016-Dec-10 04:33N 53°46' E 009°24'1010.5
2016-Dec-10 03:33N 53°53' E 009°11'10 9.7
2016-Dec-10 02:33N 53°51' E 008°54'8 8.5
2016-Dec-10 01:33N 53°54' E 008°41'1010.3
2016-Dec-10 00:33N 53°59' E 008°26'1212.3
2016-Dec-09 23:33N 53°60' E 008°05'1312.7
2016-Dec-09 22:33N 54°06' E 007°46'4812.1
2016-Dec-09 18:33N 54°47' E 007°01'1312.6
2016-Dec-09 17:33N 54°58' E 006°52'1312.8
2016-Dec-09 16:33N 55°10' E 006°43'1312.8
2016-Dec-09 15:33N 55°22' E 006°35'17613.1
2016-Dec-09 02:07N 58°06' E 004°42'812.8
2016-Dec-09 01:29N 58°14' E 004°37'1212.6
2016-Dec-09 00:33N 58°25' E 004°29'2512.5
2016-Dec-08 22:32N 58°48' E 004°12'  
2016-Dec-06 16:32N 63°03' E 006°52'1212.3
2016-Dec-06 15:33N 63°10' E 007°14'1212.1
2016-Dec-06 14:33N 63°15' E 007°39'1211.9
2016-Dec-06 13:33N 63°16' E 008°05'1212.3
2016-Dec-06 12:33N 63°23' E 008°27'1812.7
2016-Dec-06 11:10N 63°28' E 009°05'812.7
2016-Dec-06 10:33N 63°21' E 009°10'2 0.1
2016-Dec-05 22:25N 63°19' E 009°09'7 7.8
2016-Dec-05 21:30N 63°26' E 009°07'2512.8
2016-Dec-05 19:31N 63°18' E 008°14'1313.3
2016-Dec-05 18:33N 63°14' E 007°47'1212.4
2016-Dec-05 17:33N 63°12' E 007°20'1212.3
2016-Dec-05 16:33N 63°05' E 006°57'1312.4
2016-Dec-05 15:32N 62°57' E 006°35'2912.9
2016-Dec-05 13:19N 62°38' E 005°48'20812.3
2016-Dec-04 20:26N 59°11' E 005°05'8 8.6
2016-Dec-04 19:33N 59°10' E 005°20'3 0.8
2016-Dec-04 15:27N 59°13' E 005°21'1213.6
2016-Dec-04 14:33N 59°01' E 005°20'1312.9
2016-Dec-04 13:33N 58°48' E 005°21'1312.8
2016-Dec-04 12:33N 58°36' E 005°21'1312.4
2016-Dec-04 11:31N 58°23' E 005°24'1312.3
2016-Dec-04 10:30N 58°13' E 005°38'2713.5
2016-Dec-04 08:32N 57°47' E 005°50'14413.1
2016-Dec-03 21:33N 55°27' E 006°53'1313.1
2016-Dec-03 20:33N 55°14' E 006°59'1313.3
2016-Dec-03 19:33N 55°02' E 007°04'1313.4
2016-Dec-03 18:33N 54°49' E 007°10'1413.5
2016-Dec-03 17:33N 54°35' E 007°14'4514.0
2016-Dec-03 14:20N 53°54' E 007°45'1013.1
2016-Dec-03 13:33N 53°51' E 008°02'1212.4
2016-Dec-03 12:33N 53°43' E 008°18'1111.2
2016-Dec-03 11:33N 53°35' E 008°31'1 0.8
2016-Dec-03 10:33N 53°35' E 008°32'0 0.0
2016-Dec-03 09:33N 53°35' E 008°32'0 0.0
2016-Dec-03 08:33N 53°35' E 008°32'9 8.8
2016-Dec-03 07:33N 53°41' E 008°21'1111.2
2016-Dec-03 06:33N 53°48' E 008°07'10 9.6
2016-Dec-03 05:31N 53°54' E 007°53'1413.2
2016-Dec-03 04:30N 54°00' E 008°14'1415.0
2016-Dec-03 03:34N 53°58' E 008°37'1211.5
2016-Dec-03 02:34N 53°51' E 008°53'1010.3
2016-Dec-03 01:33N 53°53' E 009°10'9 9.1
2016-Dec-03 00:33N 53°48' E 009°23'1111.3
2016-Dec-02 23:33N 53°38' E 009°32'1313.3
2016-Dec-02 22:34N 53°33' E 009°52'1 1.4
2016-Dec-02 21:32N 53°32' E 009°55'0 0.0
2016-Dec-02 20:32N 53°32' E 009°55'0 0.0
2016-Dec-02 19:29N 53°32' E 009°55'0 0.0
2016-Dec-02 18:32N 53°32' E 009°55'0 0.0
2016-Dec-02 17:29N 53°32' E 009°55'1 0.8
2016-Dec-02 16:31N 53°32' E 009°55'0 0.0
2016-Dec-02 14:31N 53°32' E 009°55'0 0.2
2016-Dec-02 13:33N 53°32' E 009°55'542535.2
2016-Dec-02 12:33N 62°23' E 006°34'544498.4
2016-Dec-02 11:27N 53°30' E 009°56'546602.1
2016-Dec-02 10:33N 62°23' E 006°16'7 6.7
2016-Dec-02 09:32N 62°27' E 006°04'550562.3
2016-Dec-02 08:33N 53°31' E 009°56'1 1.2
2016-Dec-02 07:32N 53°32' E 009°57'0 0.0
2016-Dec-02 06:32N 53°32' E 009°57'0 0.0
2016-Dec-02 05:32N 53°32' E 009°57'0 0.0
2016-Dec-02 04:32N 53°32' E 009°57'0 0.0
2016-Dec-02 03:32N 53°32' E 009°57'5 4.8
2016-Dec-02 02:33N 53°33' E 009°49'1413.6
2016-Dec-02 01:34N 53°41' E 009°30'1515.3
2016-Dec-02 00:34N 53°53' E 009°14'1515.1
2016-Dec-01 23:33N 53°50' E 008°48'525497.3
2016-Dec-01 22:30N 62°28' E 006°08'0 0.0
2016-Dec-01 21:30N 62°28' E 006°08'0 0.0
2016-Dec-01 20:30N 62°28' E 006°08'0 0.0
2016-Dec-01 19:30N 62°28' E 006°08'0 0.0
2016-Dec-01 18:33N 62°28' E 006°08'1 0.8
2016-Dec-01 17:33N 62°28' E 006°10'471382.6
2016-Dec-01 16:19N 54°38' E 007°09'810.1
2016-Dec-01 15:33N 54°45' E 007°02'1010.2
2016-Dec-01 14:33N 54°54' E 006°54'1010.2
2016-Dec-01 13:33N 55°03' E 006°47'1010.4
2016-Dec-01 12:33N 55°13' E 006°41'460229.7
2016-Dec-01 10:33N 62°53' E 006°21'5 5.5
2016-Dec-01 09:34N 62°56' E 006°31'7 7.1
2016-Dec-01 08:33N 63°00' E 006°44'7 6.6
2016-Dec-01 07:33N 63°04' E 006°55'  
Track history (hours):
 
Tides and Currents Weather Stations Pressure Air Temp Water Temp Dewpoint Dewpoint Depression Visibility Wind Speed Wind Dir Waves Ship Positions

Berta

Last reported at 2016-Dec-11 07:33 UTC. Time now 2016-Dec-11 08:08 UTC.
Position N 54°01' E 007°44'.

Length 118 m; draft 6.9 m.

Type: Cargo ship. MMSI: 304586000.

Date/timePositionNaut miles runAvg speedWind from/ knotsBaromVisibWave heightAir tempDewpointWater temp
2016-Dec-11 07:33N 54°01' E 007°44'10 9.7
2016-Dec-11 06:33N 54°00' E 008°00'9 9.3
2016-Dec-11 05:33N 54°00' E 008°16'1110.6
2016-Dec-11 04:33N 53°58' E 008°34'1313.3
2016-Dec-11 03:33N 53°51' E 008°52'1413.9
2016-Dec-11 02:34N 53°52' E 009°16'1515.1
2016-Dec-11 01:34N 53°40' E 009°31'1312.7
2016-Dec-11 00:34N 53°33' E 009°48'4 3.9
2016-Dec-10 23:32N 53°32' E 009°55'0 0.0
2016-Dec-10 22:32N 53°32' E 009°55'1 1.0
2016-Dec-10 21:33N 53°32' E 009°56'2 1.9
2016-Dec-10 20:33N 53°30' E 009°56'0 0.0
2016-Dec-10 19:33N 53°30' E 009°56'0 0.0
2016-Dec-10 18:33N 53°30' E 009°56'0 0.0
2016-Dec-10 17:33N 53°30' E 009°56'2 2.2
2016-Dec-10 16:33N 53°32' E 009°55'0 0.0
2016-Dec-10 15:33N 53°32' E 009°55'0 0.0
2016-Dec-10 14:33N 53°32' E 009°55'0 0.0
2016-Dec-10 13:33N 53°32' E 009°55'0 0.0
2016-Dec-10 12:33N 53°32' E 009°55'0 0.0
2016-Dec-10 11:33N 53°32' E 009°55'0 0.0
2016-Dec-10 10:33N 53°32' E 009°55'0 0.0
2016-Dec-10 09:33N 53°32' E 009°55'0 0.0
2016-Dec-10 08:33N 53°32' E 009°55'0 0.0
2016-Dec-10 07:33N 53°32' E 009°55'1 1.3
2016-Dec-10 06:33N 53°33' E 009°53'1111.1
2016-Dec-10 05:33N 53°36' E 009°35'1211.7
2016-Dec-10 04:33N 53°46' E 009°24'1010.5
2016-Dec-10 03:33N 53°53' E 009°11'10 9.7
2016-Dec-10 02:33N 53°51' E 008°54'8 8.5
2016-Dec-10 01:33N 53°54' E 008°41'1010.3
2016-Dec-10 00:33N 53°59' E 008°26'1212.3
2016-Dec-09 23:33N 53°60' E 008°05'1312.7
2016-Dec-09 22:33N 54°06' E 007°46'4812.1
2016-Dec-09 18:33N 54°47' E 007°01'1312.6
2016-Dec-09 17:33N 54°58' E 006°52'1312.8
2016-Dec-09 16:33N 55°10' E 006°43'1312.8
2016-Dec-09 15:33N 55°22' E 006°35'17613.1
2016-Dec-09 02:07N 58°06' E 004°42'812.8
2016-Dec-09 01:29N 58°14' E 004°37'1212.6
2016-Dec-09 00:33N 58°25' E 004°29'2512.5
2016-Dec-08 22:32N 58°48' E 004°12'  
2016-Dec-06 16:32N 63°03' E 006°52'1212.3
2016-Dec-06 15:33N 63°10' E 007°14'1212.1
2016-Dec-06 14:33N 63°15' E 007°39'1211.9
2016-Dec-06 13:33N 63°16' E 008°05'1212.3
2016-Dec-06 12:33N 63°23' E 008°27'1812.7
2016-Dec-06 11:10N 63°28' E 009°05'812.7
2016-Dec-06 10:33N 63°21' E 009°10'2 0.1
2016-Dec-05 22:25N 63°19' E 009°09'7 7.8
2016-Dec-05 21:30N 63°26' E 009°07'2512.8
2016-Dec-05 19:31N 63°18' E 008°14'1313.3
2016-Dec-05 18:33N 63°14' E 007°47'1212.4
2016-Dec-05 17:33N 63°12' E 007°20'1212.3
2016-Dec-05 16:33N 63°05' E 006°57'1312.4
2016-Dec-05 15:32N 62°57' E 006°35'2912.9
2016-Dec-05 13:19N 62°38' E 005°48'20812.3
2016-Dec-04 20:26N 59°11' E 005°05'8 8.6
2016-Dec-04 19:33N 59°10' E 005°20'3 0.8
2016-Dec-04 15:27N 59°13' E 005°21'1213.6
2016-Dec-04 14:33N 59°01' E 005°20'1312.9
2016-Dec-04 13:33N 58°48' E 005°21'1312.8
2016-Dec-04 12:33N 58°36' E 005°21'1312.4
2016-Dec-04 11:31N 58°23' E 005°24'1312.3
2016-Dec-04 10:30N 58°13' E 005°38'2713.5
2016-Dec-04 08:32N 57°47' E 005°50'14413.1
2016-Dec-03 21:33N 55°27' E 006°53'1313.1
2016-Dec-03 20:33N 55°14' E 006°59'1313.3
2016-Dec-03 19:33N 55°02' E 007°04'1313.4
2016-Dec-03 18:33N 54°49' E 007°10'1413.5
2016-Dec-03 17:33N 54°35' E 007°14'4514.0
2016-Dec-03 14:20N 53°54' E 007°45'1013.1
2016-Dec-03 13:33N 53°51' E 008°02'1212.4
2016-Dec-03 12:33N 53°43' E 008°18'1111.2
2016-Dec-03 11:33N 53°35' E 008°31'1 0.8
2016-Dec-03 10:33N 53°35' E 008°32'0 0.0
2016-Dec-03 09:33N 53°35' E 008°32'0 0.0
2016-Dec-03 08:33N 53°35' E 008°32'9 8.8
2016-Dec-03 07:33N 53°41' E 008°21'1111.2
2016-Dec-03 06:33N 53°48' E 008°07'10 9.6
2016-Dec-03 05:31N 53°54' E 007°53'1413.2
2016-Dec-03 04:30N 54°00' E 008°14'1415.0
2016-Dec-03 03:34N 53°58' E 008°37'1211.5
2016-Dec-03 02:34N 53°51' E 008°53'1010.3
2016-Dec-03 01:33N 53°53' E 009°10'9 9.1
2016-Dec-03 00:33N 53°48' E 009°23'1111.3
2016-Dec-02 23:33N 53°38' E 009°32'1313.3
2016-Dec-02 22:34N 53°33' E 009°52'1 1.4
2016-Dec-02 21:32N 53°32' E 009°55'0 0.0
2016-Dec-02 20:32N 53°32' E 009°55'0 0.0
2016-Dec-02 19:29N 53°32' E 009°55'0 0.0
2016-Dec-02 18:32N 53°32' E 009°55'0 0.0
2016-Dec-02 17:29N 53°32' E 009°55'1 0.8
2016-Dec-02 16:31N 53°32' E 009°55'0 0.0
2016-Dec-02 14:31N 53°32' E 009°55'0 0.2
2016-Dec-02 13:33N 53°32' E 009°55'542535.2
2016-Dec-02 12:33N 62°23' E 006°34'544498.4
2016-Dec-02 11:27N 53°30' E 009°56'546602.1
2016-Dec-02 10:33N 62°23' E 006°16'7 6.7
2016-Dec-02 09:32N 62°27' E 006°04'550562.3
2016-Dec-02 08:33N 53°31' E 009°56'1 1.2
2016-Dec-02 07:32N 53°32' E 009°57'0 0.0
2016-Dec-02 06:32N 53°32' E 009°57'0 0.0
2016-Dec-02 05:32N 53°32' E 009°57'0 0.0
2016-Dec-02 04:32N 53°32' E 009°57'0 0.0
2016-Dec-02 03:32N 53°32' E 009°57'5 4.8
2016-Dec-02 02:33N 53°33' E 009°49'1413.6
2016-Dec-02 01:34N 53°41' E 009°30'1515.3
2016-Dec-02 00:34N 53°53' E 009°14'1515.1
2016-Dec-01 23:33N 53°50' E 008°48'525497.3
2016-Dec-01 22:30N 62°28' E 006°08'0 0.0
2016-Dec-01 21:30N 62°28' E 006°08'0 0.0
2016-Dec-01 20:30N 62°28' E 006°08'0 0.0
2016-Dec-01 19:30N 62°28' E 006°08'0 0.0
2016-Dec-01 18:33N 62°28' E 006°08'1 0.8
2016-Dec-01 17:33N 62°28' E 006°10'471382.6
2016-Dec-01 16:19N 54°38' E 007°09'810.1
2016-Dec-01 15:33N 54°45' E 007°02'1010.2
2016-Dec-01 14:33N 54°54' E 006°54'1010.2
2016-Dec-01 13:33N 55°03' E 006°47'1010.4
2016-Dec-01 12:33N 55°13' E 006°41'460229.7
2016-Dec-01 10:33N 62°53' E 006°21'5 5.5
2016-Dec-01 09:34N 62°56' E 006°31'7 7.1
2016-Dec-01 08:33N 63°00' E 006°44'7 6.6
2016-Dec-01 07:33N 63°04' E 006°55'  

Dump ship's entire track history